createdAt,value
2018-11-20T00:00:41.866Z,6.40
2018-11-20T00:03:35.800Z,6.10
2018-11-20T00:06:22.507Z,6.10
2018-11-20T00:09:19.733Z,6.20
2018-11-20T00:12:06.316Z,6.10
2018-11-20T00:14:51.495Z,6.10
2018-11-20T00:17:37.605Z,6.20
2018-11-20T00:20:24.680Z,6.30
2018-11-20T00:23:15.619Z,6.50
2018-11-20T00:26:03.014Z,6.30
2018-11-20T00:28:57.353Z,6.30
2018-11-20T00:31:38.091Z,6.30
2018-11-20T00:34:15.893Z,6.50
2018-11-20T00:37:16.103Z,6.80
2018-11-20T00:39:58.758Z,6.90
2018-11-20T00:42:37.724Z,7.20
2018-11-20T00:45:25.236Z,7.00
2018-11-20T00:48:22.248Z,7.30
2018-11-20T00:51:04.393Z,7.30
2018-11-20T00:53:54.871Z,7.20
2018-11-20T00:56:52.330Z,6.90
2018-11-20T00:59:45.519Z,7.10
2018-11-20T01:02:32.024Z,6.90
2018-11-20T01:05:27.133Z,7.10
2018-11-20T01:08:21.005Z,7.00
2018-11-20T01:11:15.011Z,7.00
2018-11-20T01:13:56.214Z,6.80
2018-11-20T01:16:44.095Z,7.00
2018-11-20T01:19:30.698Z,7.00
2018-11-20T01:22:17.722Z,7.10
2018-11-20T01:25:08.482Z,7.30
2018-11-20T01:28:05.611Z,7.10
2018-11-20T01:30:52.751Z,7.00
2018-11-20T01:33:39.302Z,6.90
2018-11-20T01:36:25.861Z,7.10
2018-11-20T01:39:12.646Z,7.00
2018-11-20T01:41:55.800Z,7.20
2018-11-20T01:44:44.278Z,7.10
2018-11-20T01:47:31.056Z,7.30
2018-11-20T01:50:17.798Z,7.40
2018-11-20T01:53:04.778Z,7.60
2018-11-20T01:55:51.562Z,7.30
2018-11-20T01:58:28.748Z,7.10
2018-11-20T02:01:15.542Z,7.30
2018-11-20T02:04:07.088Z,7.30
2018-11-20T02:07:03.343Z,7.60
2018-11-20T02:09:51.497Z,7.40
2018-11-20T02:12:54.874Z,7.30
2018-11-20T02:15:52.450Z,7.30
2018-11-20T02:18:39.457Z,7.10
2018-11-20T02:21:33.562Z,7.30
2018-11-20T02:24:12.873Z,7.30
2018-11-20T02:27:01.326Z,7.30
2018-11-20T02:29:48.153Z,7.40
2018-11-20T02:32:45.712Z,7.30
2018-11-20T02:35:24.950Z,7.50
2018-11-20T02:38:11.670Z,7.40
2018-11-20T02:40:58.506Z,7.60
2018-11-20T02:43:55.934Z,7.70
2018-11-20T02:46:34.758Z,7.70
2018-11-20T02:49:21.054Z,7.80
2018-11-20T02:52:09.210Z,7.70
2018-11-20T02:54:51.208Z,7.60
2018-11-20T02:57:30.333Z,7.60
2018-11-20T03:00:16.117Z,7.70
2018-11-20T03:03:10.288Z,7.60
2018-11-20T03:05:58.758Z,7.50
2018-11-20T03:08:33.682Z,7.60
2018-11-20T03:11:25.389Z,7.80
2018-11-20T03:14:23.496Z,7.70
2018-11-20T03:17:15.921Z,7.70
2018-11-20T03:19:59.752Z,7.50
2018-11-20T03:22:46.389Z,7.60
2018-11-20T03:26:13.351Z,7.50
2018-11-20T03:29:52.168Z,7.60
2018-11-20T03:32:38.731Z,7.70
2018-11-20T03:35:28.238Z,7.70
2018-11-20T03:38:18.859Z,7.70
2018-11-20T03:41:06.578Z,7.50
2018-11-20T03:43:49.994Z,7.40
2018-11-20T03:46:47.570Z,7.40
2018-11-20T03:49:48.505Z,7.60
2018-11-20T03:52:51.935Z,7.70
2018-11-20T03:55:36.261Z,7.60
2018-11-20T03:58:19.159Z,7.50
2018-11-20T04:01:12.981Z,7.50
2018-11-20T04:03:51.359Z,7.40
2018-11-20T04:06:28.999Z,7.60
2018-11-20T04:09:10.691Z,7.50
2018-11-20T04:12:14.173Z,7.50
2018-11-20T04:15:21.025Z,7.30
2018-11-20T04:18:14.318Z,7.20
2018-11-20T04:21:01.268Z,6.90
2018-11-20T04:23:43.428Z,6.90
2018-11-20T04:26:29.917Z,7.20
2018-11-20T04:29:33.491Z,7.20
2018-11-20T04:32:09.128Z,7.30
2018-11-20T04:35:09.675Z,7.20
2018-11-20T04:37:46.492Z,7.00
2018-11-20T04:40:40.386Z,7.20
2018-11-20T04:43:27.708Z,7.60
2018-11-20T04:46:14.438Z,7.70
2018-11-20T04:48:55.064Z,7.50
2018-11-20T04:51:55.835Z,7.30
2018-11-20T04:54:36.284Z,7.30
2018-11-20T04:57:20.768Z,7.40
2018-11-20T05:00:12.255Z,7.50
2018-11-20T05:02:55.686Z,7.50
2018-11-20T05:05:42.506Z,7.60
2018-11-20T05:08:22.556Z,7.60
2018-11-20T05:11:23.232Z,7.60
2018-11-20T05:14:20.113Z,7.60
2018-11-20T05:17:14.918Z,7.70
2018-11-20T05:20:03.030Z,7.40
2018-11-20T05:22:49.451Z,7.30
2018-11-20T05:25:35.934Z,7.60
2018-11-20T05:28:22.801Z,7.70
2018-11-20T05:31:13.388Z,7.50
2018-11-20T05:33:49.530Z,7.70
2018-11-20T05:36:46.696Z,7.60
2018-11-20T05:39:33.167Z,7.60
2018-11-20T05:42:14.190Z,7.40
2018-11-20T05:45:10.471Z,7.50
2018-11-20T05:47:50.068Z,7.60
2018-11-20T05:50:34.417Z,7.50
2018-11-20T05:53:31.559Z,7.70
2018-11-20T05:56:15.002Z,7.80
2018-11-20T05:59:08.282Z,7.70
2018-11-20T06:01:49.334Z,7.60
2018-11-20T06:04:29.605Z,7.50
2018-11-20T06:07:16.528Z,7.00
2018-11-20T06:10:16.644Z,7.20
2018-11-20T06:12:57.476Z,7.20
2018-11-20T06:15:42.529Z,7.20
2018-11-20T06:18:39.972Z,7.20
2018-11-20T06:21:30.831Z,7.40
2018-11-20T06:24:13.777Z,7.20
2018-11-20T06:26:54.341Z,7.30
2018-11-20T06:29:39.511Z,7.40
2018-11-20T06:32:21.407Z,7.40
2018-11-20T06:35:09.553Z,7.60
2018-11-20T06:38:07.303Z,7.50
2018-11-20T06:41:10.868Z,7.60
2018-11-20T06:43:56.493Z,7.50
2018-11-20T06:46:43.507Z,7.20
2018-11-20T06:49:37.585Z,7.30
2018-11-20T06:52:24.515Z,7.30
2018-11-20T06:55:05.903Z,7.30
2018-11-20T06:57:54.332Z,7.40
2018-11-20T07:00:41.038Z,7.30
2018-11-20T07:03:27.803Z,7.40
2018-11-20T07:06:14.775Z,7.50
2018-11-20T07:09:01.716Z,7.30
2018-11-20T07:11:41.557Z,7.50
2018-11-20T07:14:32.458Z,7.30
2018-11-20T07:17:23.140Z,7.50
2018-11-20T07:20:09.800Z,7.30
2018-11-20T07:23:16.097Z,7.20
2018-11-20T07:26:07.202Z,7.30
2018-11-20T07:29:08.111Z,7.30
2018-11-20T07:31:54.492Z,7.70
2018-11-20T07:34:54.392Z,7.70
2018-11-20T07:37:41.144Z,7.70
2018-11-20T07:40:20.244Z,7.90
2018-11-20T07:43:12.004Z,8.00
2018-11-20T07:46:02.667Z,7.60
2018-11-20T07:48:50.746Z,7.40
2018-11-20T07:51:37.606Z,7.60
2018-11-20T07:54:31.779Z,7.50
2018-11-20T07:57:18.811Z,7.50
2018-11-20T08:00:04.719Z,7.60
2018-11-20T08:03:01.696Z,7.50
2018-11-20T08:05:49.173Z,7.80
2018-11-20T08:08:35.541Z,7.50
2018-11-20T08:11:11.559Z,7.40
2018-11-20T08:13:58.648Z,7.60
2018-11-20T08:16:52.835Z,7.70
2018-11-20T08:19:43.822Z,7.50
2018-11-20T08:22:24.026Z,7.30
2018-11-20T08:25:15.500Z,7.20
2018-11-20T08:27:55.505Z,7.30
2018-11-20T08:30:46.795Z,7.50
2018-11-20T08:33:43.934Z,7.90
2018-11-20T08:36:50.446Z,8.20
2018-11-20T08:39:37.089Z,7.90
2018-11-20T08:42:23.937Z,7.60
2018-11-20T08:45:21.222Z,7.50
2018-11-20T08:48:24.408Z,7.50
2018-11-20T08:51:11.725Z,7.40
2018-11-20T08:54:09.636Z,7.40
2018-11-20T08:56:56.722Z,7.50
2018-11-20T08:59:51.116Z,7.70
2018-11-20T09:02:39.612Z,8.00
2018-11-20T09:05:30.639Z,7.90
2018-11-20T09:08:33.874Z,7.70
2018-11-20T09:11:21.120Z,7.80
2018-11-20T09:14:08.194Z,7.90
2018-11-20T09:16:59.625Z,7.90
2018-11-20T09:19:46.402Z,8.00
2018-11-20T09:22:37.037Z,8.10
2018-11-20T09:25:31.884Z,8.00
2018-11-20T09:28:20.010Z,8.20
2018-11-20T09:31:15.642Z,8.30
2018-11-20T09:34:03.741Z,8.50
2018-11-20T09:36:41.856Z,8.60
2018-11-20T09:39:33.990Z,8.70
2018-11-20T09:42:30.937Z,8.70
2018-11-20T09:45:49.701Z,8.80
2018-11-20T09:48:28.060Z,8.60
2018-11-20T09:51:15.170Z,8.60
2018-11-20T09:54:02.208Z,8.40
2018-11-20T09:56:50.329Z,8.50
2018-11-20T09:59:56.445Z,8.60
2018-11-20T10:02:44.730Z,8.60
2018-11-20T10:05:29.142Z,8.70
2018-11-20T10:08:20.334Z,8.70
2018-11-20T10:11:14.461Z,8.40
2018-11-20T10:14:00.707Z,8.60
2018-11-20T10:16:51.701Z,8.70
2018-11-20T10:19:51.989Z,8.70
2018-11-20T10:22:39.331Z,8.70
2018-11-20T10:25:28.026Z,8.50
2018-11-20T10:28:15.089Z,8.40
2018-11-20T10:31:01.768Z,8.40
2018-11-20T10:33:48.098Z,8.40
2018-11-20T10:36:45.245Z,8.50
2018-11-20T10:39:36.033Z,8.60
2018-11-20T10:42:28.442Z,8.30
2018-11-20T10:45:26.775Z,8.10
2018-11-20T10:48:12.366Z,8.30
2018-11-20T10:50:59.140Z,8.50
2018-11-20T10:53:52.919Z,8.40
2018-11-20T10:56:39.927Z,8.40
2018-11-20T10:59:26.830Z,8.30
2018-11-20T11:02:13.531Z,8.30
2018-11-20T11:05:00.483Z,8.20
2018-11-20T11:07:46.581Z,8.20
2018-11-20T11:10:23.053Z,8.10
2018-11-20T11:13:09.988Z,8.40
2018-11-20T11:16:07.563Z,8.70
2018-11-20T11:18:54.681Z,8.60
2018-11-20T11:21:41.734Z,8.80
2018-11-20T11:24:29.005Z,8.80
2018-11-20T11:27:14.679Z,8.80
2018-11-20T11:30:01.682Z,8.70
2018-11-20T11:32:48.418Z,9.00
2018-11-20T11:35:35.061Z,9.00
2018-11-20T11:38:16.517Z,8.80
2018-11-20T11:41:06.077Z,8.70
2018-11-20T11:43:52.710Z,8.90
2018-11-20T11:46:39.478Z,8.90
2018-11-20T11:49:43.304Z,8.90
2018-11-20T11:52:34.405Z,8.70
2018-11-20T11:55:16.432Z,8.80
2018-11-20T11:58:04.561Z,9.00
2018-11-20T12:00:51.284Z,8.90
2018-11-20T12:03:43.499Z,8.80
2018-11-20T12:06:39.133Z,8.70
2018-11-20T12:09:38.289Z,8.60
2018-11-20T12:12:29.141Z,8.60
2018-11-20T12:15:15.742Z,8.50
2018-11-20T12:18:03.948Z,8.30
2018-11-20T12:20:43.320Z,8.00
2018-11-20T12:23:33.643Z,8.60
2018-11-20T12:26:15.330Z,8.60
2018-11-20T12:29:03.219Z,8.60
2018-11-20T12:31:43.169Z,8.60
2018-11-20T12:34:32.673Z,8.70
2018-11-20T12:37:19.508Z,8.80
2018-11-20T12:40:19.811Z,8.70
2018-11-20T12:43:10.799Z,8.40
2018-11-20T12:45:57.773Z,8.40
2018-11-20T12:48:46.378Z,8.40
2018-11-20T12:51:43.946Z,8.30
2018-11-20T12:54:30.630Z,8.30
2018-11-20T12:57:14.055Z,8.20
2018-11-20T13:00:10.490Z,8.10
2018-11-20T13:03:11.481Z,8.20
2018-11-20T13:05:59.616Z,8.30
2018-11-20T13:08:46.879Z,8.30
2018-11-20T13:11:24.042Z,8.30
2018-11-20T13:14:06.747Z,8.70
2018-11-20T13:16:54.895Z,8.60
2018-11-20T13:19:48.993Z,8.60
2018-11-20T13:22:37.435Z,8.70
2018-11-20T13:25:19.030Z,8.60
2018-11-20T13:28:05.636Z,8.80
2018-11-20T13:30:52.663Z,9.00
2018-11-20T13:33:43.987Z,9.00
2018-11-20T13:36:30.513Z,8.60
2018-11-20T13:39:11.866Z,8.70
2018-11-20T13:41:58.321Z,8.70
2018-11-20T13:45:09.862Z,8.70
2018-11-20T13:48:10.010Z,8.80
2018-11-20T13:50:53.592Z,8.90
2018-11-20T13:53:38.824Z,9.20
2018-11-20T13:56:25.568Z,9.10
2018-11-20T13:59:16.583Z,9.00
2018-11-20T14:02:03.438Z,8.70
2018-11-20T14:04:49.993Z,8.90
2018-11-20T14:07:43.948Z,8.90
2018-11-20T14:10:43.395Z,9.20
2018-11-20T14:13:30.632Z,9.10
2018-11-20T14:16:30.925Z,9.10
2018-11-20T14:19:18.387Z,9.00
2018-11-20T14:21:52.811Z,8.60
2018-11-20T14:24:46.867Z,8.50
2018-11-20T14:27:33.597Z,8.50
2018-11-20T14:30:20.203Z,8.30
2018-11-20T14:32:59.523Z,8.20
2018-11-20T14:35:50.943Z,8.30
2018-11-20T14:38:41.996Z,8.40
2018-11-20T14:41:28.637Z,8.40
2018-11-20T14:44:22.729Z,8.70
2018-11-20T14:47:24.612Z,8.30
2018-11-20T14:50:11.146Z,8.50
2018-11-20T14:53:02.072Z,8.40
2018-11-20T14:55:59.105Z,8.10
2018-11-20T14:58:40.255Z,8.00
2018-11-20T15:01:30.755Z,8.00
2018-11-20T15:04:17.422Z,8.20
2018-11-20T15:07:02.240Z,7.80
2018-11-20T15:09:44.625Z,7.70
2018-11-20T15:12:37.278Z,7.60
2018-11-20T15:15:27.027Z,7.50
2018-11-20T15:18:26.726Z,7.40
2018-11-20T15:21:13.430Z,7.30
2018-11-20T15:24:02.242Z,7.20
2018-11-20T15:26:54.039Z,6.90
2018-11-20T15:29:42.634Z,6.60
2018-11-20T15:32:29.216Z,6.70
2018-11-20T15:35:32.278Z,6.90
2018-11-20T15:38:11.338Z,7.00
2018-11-20T15:41:18.001Z,7.10
2018-11-20T15:44:17.738Z,7.30
2018-11-20T15:47:04.843Z,7.10
2018-11-20T15:50:37.270Z,6.80
2018-11-20T15:53:24.726Z,6.60
2018-11-20T15:56:06.873Z,6.80
2018-11-20T15:58:52.661Z,6.90
2018-11-20T16:01:39.956Z,7.20
2018-11-20T16:04:29.867Z,7.10
2018-11-20T16:07:21.495Z,7.00
2018-11-20T16:09:55.771Z,7.20
2018-11-20T16:12:41.477Z,7.10
2018-11-20T16:15:40.437Z,7.10
2018-11-20T16:18:32.221Z,7.20
2018-11-20T16:21:18.093Z,7.20
2018-11-20T16:24:04.403Z,6.90
2018-11-20T16:26:54.809Z,6.90
2018-11-20T16:29:47.803Z,7.00
2018-11-20T16:32:50.177Z,7.00
2018-11-20T16:35:36.027Z,7.00
2018-11-20T16:38:23.150Z,7.00
2018-11-20T16:41:25.628Z,7.10
2018-11-20T16:44:23.525Z,7.00
2018-11-20T16:47:29.037Z,7.10
2018-11-20T16:50:11.148Z,7.00
2018-11-20T16:52:57.095Z,7.00
2018-11-20T16:56:02.300Z,7.20
2018-11-20T16:58:48.666Z,7.10
2018-11-20T17:01:39.912Z,7.30
2018-11-20T17:04:21.748Z,7.10
2018-11-20T17:07:06.250Z,7.20
2018-11-20T17:09:59.572Z,7.00
2018-11-20T17:12:33.869Z,7.00
2018-11-20T17:15:12.588Z,7.00
2018-11-20T17:18:14.714Z,7.10
2018-11-20T17:21:17.409Z,7.10
2018-11-20T17:24:05.343Z,7.00
2018-11-20T17:26:52.627Z,7.20
2018-11-20T17:29:40.192Z,7.20
2018-11-20T17:32:18.477Z,7.10
2018-11-20T17:35:04.611Z,7.20
2018-11-20T17:38:06.821Z,7.20
2018-11-20T17:41:09.741Z,6.90
2018-11-20T17:43:56.009Z,6.80
2018-11-20T17:46:41.907Z,6.90
2018-11-20T17:49:31.896Z,7.00
2018-11-20T17:52:25.319Z,6.90
2018-11-20T17:55:30.854Z,7.00
2018-11-20T17:58:17.283Z,6.90
2018-11-20T18:01:02.544Z,6.80
2018-11-20T18:04:01.721Z,6.80
2018-11-20T18:06:49.009Z,6.90
2018-11-20T18:09:36.326Z,7.10
2018-11-20T18:12:25.902Z,7.10
2018-11-20T18:15:25.375Z,7.10
2018-11-20T18:18:04.620Z,6.90
2018-11-20T18:20:55.003Z,6.70
2018-11-20T18:23:30.987Z,7.10
2018-11-20T18:26:33.253Z,7.10
2018-11-20T18:29:38.672Z,7.30
2018-11-20T18:32:31.649Z,7.30
2018-11-20T18:35:21.825Z,7.40
2018-11-20T18:38:07.809Z,7.40
2018-11-20T18:40:53.415Z,7.60
2018-11-20T18:43:50.366Z,7.60
2018-11-20T18:46:29.920Z,7.60
2018-11-20T18:49:16.075Z,7.70
2018-11-20T18:52:01.977Z,7.50
2018-11-20T18:54:46.143Z,7.50
2018-11-20T18:57:32.531Z,7.60
2018-11-20T19:00:28.434Z,7.70
2018-11-20T19:03:08.928Z,7.70
2018-11-20T19:05:55.392Z,7.80
2018-11-20T19:08:32.098Z,7.80
2018-11-20T19:11:18.812Z,7.80
2018-11-20T19:14:11.495Z,7.80
2018-11-20T19:16:56.927Z,7.50
2018-11-20T19:19:43.541Z,7.40
2018-11-20T19:22:29.716Z,7.30
2018-11-20T19:25:32.071Z,7.20
2018-11-20T19:28:18.044Z,7.00
2018-11-20T19:30:56.726Z,6.90
2018-11-20T19:33:41.059Z,6.90
2018-11-20T19:36:40.598Z,6.90
2018-11-20T19:39:29.624Z,6.90
2018-11-20T19:42:17.192Z,6.60
2018-11-20T19:44:53.365Z,6.70
2018-11-20T19:47:39.701Z,6.80
2018-11-20T19:50:28.941Z,6.90
2018-11-20T19:53:15.111Z,6.90
2018-11-20T19:56:21.070Z,6.90
2018-11-20T19:59:07.431Z,7.00
2018-11-20T20:01:53.825Z,7.10
2018-11-20T20:04:54.607Z,7.10
2018-11-20T20:07:40.792Z,7.20
2018-11-20T20:10:31.047Z,7.40
2018-11-20T20:13:16.204Z,7.50
2018-11-20T20:16:12.657Z,7.60
2018-11-20T20:18:58.745Z,7.70
2018-11-20T20:22:02.157Z,7.70
2018-11-20T20:24:57.607Z,7.60
2018-11-20T20:27:47.301Z,7.60
2018-11-20T20:30:36.188Z,7.50
2018-11-20T20:33:22.364Z,7.60
2018-11-20T20:36:08.605Z,7.60
2018-11-20T20:38:45.638Z,7.70
2018-11-20T20:41:31.862Z,7.40
2018-11-20T20:44:21.994Z,7.50
2018-11-20T20:47:12.346Z,7.40
2018-11-20T20:50:11.835Z,7.50
2018-11-20T20:53:04.272Z,7.60
2018-11-20T20:55:51.902Z,7.60
2018-11-20T20:58:39.481Z,7.60
2018-11-20T21:01:29.907Z,7.70
2018-11-20T21:04:10.913Z,7.70
2018-11-20T21:07:01.081Z,7.70
2018-11-20T21:09:51.532Z,7.70
2018-11-20T21:12:37.716Z,7.70
2018-11-20T21:15:33.591Z,7.80
2018-11-20T21:18:09.591Z,7.50
2018-11-20T21:20:56.913Z,7.40
2018-11-20T21:23:36.543Z,7.40
2018-11-20T21:26:23.957Z,7.40
2018-11-20T21:29:00.844Z,7.40
2018-11-20T21:31:50.983Z,7.30
2018-11-20T21:34:38.651Z,7.20
2018-11-20T21:37:16.465Z,7.00
2018-11-20T21:40:02.562Z,7.00
2018-11-20T21:42:44.763Z,6.90
2018-11-20T21:45:29.739Z,6.70
2018-11-20T21:48:28.610Z,6.70
2018-11-20T21:51:22.145Z,6.60
2018-11-20T21:54:11.059Z,6.60
2018-11-20T21:56:46.709Z,6.60
2018-11-20T21:59:39.524Z,6.50
2018-11-20T22:02:23.809Z,6.50
2018-11-20T22:05:02.953Z,6.40
2018-11-20T22:07:39.924Z,6.40
2018-11-20T22:10:26.435Z,6.40
2018-11-20T22:13:12.561Z,6.50
2018-11-20T22:15:58.313Z,6.30
2018-11-20T22:18:40.205Z,6.30
2018-11-20T22:21:45.859Z,6.30
2018-11-20T22:24:24.980Z,6.30
2018-11-20T22:27:11.285Z,6.20
2018-11-20T22:30:07.733Z,6.20
2018-11-20T22:32:58.104Z,6.30
2018-11-20T22:35:47.780Z,6.30
2018-11-20T22:38:35.355Z,6.30
2018-11-20T22:41:31.483Z,6.30
2018-11-20T22:44:12.428Z,6.20
2018-11-20T22:47:01.082Z,6.20
2018-11-20T22:49:46.797Z,6.30
2018-11-20T22:52:22.633Z,6.20
2018-11-20T22:55:18.930Z,6.20
2018-11-20T22:58:09.045Z,6.30
2018-11-20T23:00:54.636Z,6.30
2018-11-20T23:03:39.580Z,6.40
2018-11-20T23:06:34.821Z,6.40
2018-11-20T23:09:02.907Z,6.40
2018-11-20T23:11:30.994Z,6.40
2018-11-20T23:13:59.098Z,6.30
2018-11-20T23:16:28.100Z,6.30
2018-11-20T23:18:56.571Z,6.40
2018-11-20T23:21:24.669Z,6.40
2018-11-20T23:23:53.014Z,6.40
2018-11-20T23:26:21.388Z,6.40
2018-11-20T23:28:49.483Z,6.40
2018-11-20T23:31:17.546Z,6.40
2018-11-20T23:33:45.624Z,6.50
2018-11-20T23:36:13.696Z,6.40
2018-11-20T23:38:41.769Z,6.40
2018-11-20T23:41:09.894Z,6.40
2018-11-20T23:43:37.955Z,6.30
2018-11-20T23:46:06.060Z,6.30
2018-11-20T23:48:34.440Z,6.30
2018-11-20T23:51:02.520Z,6.30
2018-11-20T23:53:30.582Z,6.30
2018-11-20T23:55:58.666Z,6.30
2018-11-20T23:58:26.735Z,6.30
